sensor_id;sensor_type;location;lat;lon;timestamp;P1;durP1;ratioP1;P2;durP2;ratioP2
17306;SDS011;8771;48.048;7.682;2024-03-06T00:02:09;3.53;;;1.67;;
17306;SDS011;8771;48.048;7.682;2024-03-06T00:07:10;1.47;;;1.30;;
17306;SDS011;8771;48.048;7.682;2024-03-06T00:12:13;1.83;;;1.67;;
17306;SDS011;8771;48.048;7.682;2024-03-06T00:17:16;2.73;;;1.40;;
17306;SDS011;8771;48.048;7.682;2024-03-06T00:22:18;2.50;;;1.17;;
17306;SDS011;8771;48.048;7.682;2024-03-06T00:27:20;1.63;;;1.00;;
17306;SDS011;8771;48.048;7.682;2024-03-06T00:32:24;3.10;;;1.00;;
17306;SDS011;8771;48.048;7.682;2024-03-06T00:37:26;1.73;;;1.30;;
17306;SDS011;8771;48.048;7.682;2024-03-06T00:42:28;1.80;;;1.10;;
17306;SDS011;8771;48.048;7.682;2024-03-06T00:47:46;2.40;;;1.20;;
17306;SDS011;8771;48.048;7.682;2024-03-06T00:53:03;1.47;;;1.20;;
17306;SDS011;8771;48.048;7.682;2024-03-06T00:58:05;1.23;;;1.13;;
17306;SDS011;8771;48.048;7.682;2024-03-06T01:03:09;1.23;;;1.13;;
17306;SDS011;8771;48.048;7.682;2024-03-06T01:08:12;1.30;;;1.20;;
17306;SDS011;8771;48.048;7.682;2024-03-06T01:13:16;1.93;;;1.10;;
17306;SDS011;8771;48.048;7.682;2024-03-06T01:18:21;2.47;;;1.10;;
17306;SDS011;8771;48.048;7.682;2024-03-06T01:23:24;1.43;;;0.90;;
17306;SDS011;8771;48.048;7.682;2024-03-06T01:28:27;1.90;;;1.17;;
17306;SDS011;8771;48.048;7.682;2024-03-06T01:33:31;1.43;;;1.10;;
17306;SDS011;8771;48.048;7.682;2024-03-06T01:38:33;1.10;;;1.10;;
17306;SDS011;8771;48.048;7.682;2024-03-06T01:43:36;1.00;;;0.90;;
17306;SDS011;8771;48.048;7.682;2024-03-06T01:48:40;1.10;;;1.00;;
17306;SDS011;8771;48.048;7.682;2024-03-06T01:53:44;1.23;;;1.13;;
17306;SDS011;8771;48.048;7.682;2024-03-06T01:58:46;1.77;;;1.00;;
17306;SDS011;8771;48.048;7.682;2024-03-06T02:03:51;1.80;;;1.23;;
17306;SDS011;8771;48.048;7.682;2024-03-06T02:08:54;2.23;;;1.30;;
17306;SDS011;8771;48.048;7.682;2024-03-06T02:13:57;1.47;;;1.00;;
17306;SDS011;8771;48.048;7.682;2024-03-06T02:19:02;2.27;;;1.13;;
17306;SDS011;8771;48.048;7.682;2024-03-06T02:24:07;1.60;;;1.27;;
17306;SDS011;8771;48.048;7.682;2024-03-06T02:29:12;2.40;;;1.23;;
17306;SDS011;8771;48.048;7.682;2024-03-06T02:34:16;1.87;;;1.40;;
17306;SDS011;8771;48.048;7.682;2024-03-06T02:39:20;1.63;;;1.27;;
17306;SDS011;8771;48.048;7.682;2024-03-06T02:44:23;1.20;;;1.10;;
17306;SDS011;8771;48.048;7.682;2024-03-06T02:49:26;1.03;;;1.03;;
17306;SDS011;8771;48.048;7.682;2024-03-06T02:54:30;1.77;;;1.20;;
17306;SDS011;8771;48.048;7.682;2024-03-06T02:59:33;1.40;;;1.30;;
17306;SDS011;8771;48.048;7.682;2024-03-06T03:04:36;2.87;;;1.20;;
17306;SDS011;8771;48.048;7.682;2024-03-06T03:09:40;1.17;;;1.10;;
17306;SDS011;8771;48.048;7.682;2024-03-06T03:14:43;1.40;;;1.30;;
17306;SDS011;8771;48.048;7.682;2024-03-06T03:19:46;1.80;;;1.20;;
17306;SDS011;8771;48.048;7.682;2024-03-06T03:24:50;2.10;;;1.33;;
17306;SDS011;8771;48.048;7.682;2024-03-06T03:29:53;1.40;;;1.30;;
17306;SDS011;8771;48.048;7.682;2024-03-06T03:34:56;2.13;;;1.30;;
17306;SDS011;8771;48.048;7.682;2024-03-06T03:40:00;1.23;;;1.10;;
17306;SDS011;8771;48.048;7.682;2024-03-06T03:45:04;1.33;;;1.23;;
17306;SDS011;8771;48.048;7.682;2024-03-06T03:50:06;2.27;;;1.20;;
17306;SDS011;8771;48.048;7.682;2024-03-06T03:55:11;1.13;;;1.13;;
17306;SDS011;8771;48.048;7.682;2024-03-06T04:00:15;1.53;;;1.40;;
17306;SDS011;8771;48.048;7.682;2024-03-06T04:05:18;1.77;;;1.30;;
17306;SDS011;8771;48.048;7.682;2024-03-06T04:10:23;1.27;;;1.27;;
17306;SDS011;8771;48.048;7.682;2024-03-06T04:15:26;1.30;;;1.20;;
17306;SDS011;8771;48.048;7.682;2024-03-06T04:20:28;1.50;;;1.40;;
17306;SDS011;8771;48.048;7.682;2024-03-06T04:25:32;1.67;;;1.27;;
17306;SDS011;8771;48.048;7.682;2024-03-06T04:30:37;2.03;;;1.30;;
17306;SDS011;8771;48.048;7.682;2024-03-06T04:35:39;2.27;;;1.63;;
17306;SDS011;8771;48.048;7.682;2024-03-06T04:40:44;1.40;;;1.30;;
17306;SDS011;8771;48.048;7.682;2024-03-06T04:45:47;3.57;;;1.40;;
17306;SDS011;8771;48.048;7.682;2024-03-06T04:50:49;2.13;;;1.60;;
17306;SDS011;8771;48.048;7.682;2024-03-06T04:55:54;1.73;;;1.63;;
17306;SDS011;8771;48.048;7.682;2024-03-06T05:00:56;2.53;;;1.30;;
17306;SDS011;8771;48.048;7.682;2024-03-06T05:05:58;1.77;;;1.50;;
17306;SDS011;8771;48.048;7.682;2024-03-06T05:11:02;2.30;;;1.53;;
17306;SDS011;8771;48.048;7.682;2024-03-06T05:16:04;2.50;;;1.70;;
17306;SDS011;8771;48.048;7.682;2024-03-06T05:21:23;1.57;;;1.47;;
17306;SDS011;8771;48.048;7.682;2024-03-06T05:26:27;2.53;;;2.30;;
17306;SDS011;8771;48.048;7.682;2024-03-06T05:31:30;2.50;;;1.60;;
17306;SDS011;8771;48.048;7.682;2024-03-06T05:36:32;2.87;;;1.80;;
17306;SDS011;8771;48.048;7.682;2024-03-06T05:41:35;2.13;;;1.60;;
17306;SDS011;8771;48.048;7.682;2024-03-06T05:46:52;1.60;;;1.50;;
17306;SDS011;8771;48.048;7.682;2024-03-06T05:51:54;1.90;;;1.50;;
17306;SDS011;8771;48.048;7.682;2024-03-06T05:57:13;3.13;;;1.63;;
17306;SDS011;8771;48.048;7.682;2024-03-06T06:02:15;1.97;;;1.77;;
17306;SDS011;8771;48.048;7.682;2024-03-06T06:07:21;1.87;;;1.60;;
17306;SDS011;8771;48.048;7.682;2024-03-06T06:12:25;1.73;;;1.63;;
17306;SDS011;8771;48.048;7.682;2024-03-06T06:17:28;1.90;;;1.57;;
17306;SDS011;8771;48.048;7.682;2024-03-06T06:22:30;4.43;;;2.00;;
17306;SDS011;8771;48.048;7.682;2024-03-06T06:27:34;2.20;;;1.70;;
17306;SDS011;8771;48.048;7.682;2024-03-06T06:32:36;2.77;;;2.00;;
17306;SDS011;8771;48.048;7.682;2024-03-06T06:37:39;1.90;;;1.80;;
17306;SDS011;8771;48.048;7.682;2024-03-06T06:42:48;2.03;;;1.90;;
17306;SDS011;8771;48.048;7.682;2024-03-06T06:47:52;2.47;;;2.27;;
17306;SDS011;8771;48.048;7.682;2024-03-06T06:52:55;3.10;;;2.57;;
17306;SDS011;8771;48.048;7.682;2024-03-06T06:58:02;2.10;;;2.00;;
17306;SDS011;8771;48.048;7.682;2024-03-06T07:03:04;2.20;;;2.10;;
17306;SDS011;8771;48.048;7.682;2024-03-06T07:08:07;2.47;;;2.23;;
17306;SDS011;8771;48.048;7.682;2024-03-06T07:13:10;2.10;;;2.00;;
17306;SDS011;8771;48.048;7.682;2024-03-06T07:18:27;2.63;;;2.17;;
17306;SDS011;8771;48.048;7.682;2024-03-06T07:23:44;2.70;;;2.40;;
17306;SDS011;8771;48.048;7.682;2024-03-06T07:29:02;2.83;;;2.57;;
17306;SDS011;8771;48.048;7.682;2024-03-06T07:34:06;3.03;;;2.73;;
17306;SDS011;8771;48.048;7.682;2024-03-06T07:39:08;3.27;;;2.77;;
17306;SDS011;8771;48.048;7.682;2024-03-06T07:44:11;3.23;;;2.97;;
17306;SDS011;8771;48.048;7.682;2024-03-06T07:49:14;3.40;;;3.10;;
17306;SDS011;8771;48.048;7.682;2024-03-06T07:54:16;4.73;;;3.63;;
17306;SDS011;8771;48.048;7.682;2024-03-06T07:59:21;3.37;;;3.07;;
17306;SDS011;8771;48.048;7.682;2024-03-06T08:04:23;4.40;;;3.73;;
17306;SDS011;8771;48.048;7.682;2024-03-06T08:09:26;3.80;;;3.50;;
17306;SDS011;8771;48.048;7.682;2024-03-06T08:14:45;5.53;;;3.47;;
17306;SDS011;8771;48.048;7.682;2024-03-06T08:19:47;5.90;;;3.93;;
17306;SDS011;8771;48.048;7.682;2024-03-06T08:24:50;3.70;;;3.40;;
17306;SDS011;8771;48.048;7.682;2024-03-06T08:29:54;3.23;;;2.77;;
17306;SDS011;8771;48.048;7.682;2024-03-06T08:34:57;3.10;;;2.27;;
17306;SDS011;8771;48.048;7.682;2024-03-06T08:40:00;3.53;;;2.37;;
17306;SDS011;8771;48.048;7.682;2024-03-06T08:45:05;2.03;;;1.90;;
17306;SDS011;8771;48.048;7.682;2024-03-06T08:50:09;1.80;;;1.70;;
17306;SDS011;8771;48.048;7.682;2024-03-06T08:55:12;2.10;;;1.90;;
17306;SDS011;8771;48.048;7.682;2024-03-06T09:00:20;2.10;;;1.90;;
17306;SDS011;8771;48.048;7.682;2024-03-06T09:05:24;2.23;;;2.13;;
17306;SDS011;8771;48.048;7.682;2024-03-06T09:10:27;2.97;;;2.67;;
17306;SDS011;8771;48.048;7.682;2024-03-06T09:15:31;2.60;;;2.17;;
17306;SDS011;8771;48.048;7.682;2024-03-06T09:20:34;3.07;;;1.80;;
17306;SDS011;8771;48.048;7.682;2024-03-06T09:25:37;2.00;;;1.37;;
17306;SDS011;8771;48.048;7.682;2024-03-06T09:30:42;1.93;;;1.73;;
17306;SDS011;8771;48.048;7.682;2024-03-06T09:35:46;2.00;;;1.30;;
17306;SDS011;8771;48.048;7.682;2024-03-06T09:40:48;1.60;;;1.50;;
17306;SDS011;8771;48.048;7.682;2024-03-06T09:45:53;1.40;;;1.30;;
17306;SDS011;8771;48.048;7.682;2024-03-06T09:51:00;3.43;;;1.73;;
17306;SDS011;8771;48.048;7.682;2024-03-06T09:56:04;1.87;;;1.77;;
17306;SDS011;8771;48.048;7.682;2024-03-06T10:01:09;2.10;;;1.90;;
17306;SDS011;8771;48.048;7.682;2024-03-06T10:06:14;2.97;;;1.83;;
17306;SDS011;8771;48.048;7.682;2024-03-06T10:11:20;2.27;;;2.07;;
17306;SDS011;8771;48.048;7.682;2024-03-06T10:16:24;2.40;;;2.17;;
17306;SDS011;8771;48.048;7.682;2024-03-06T10:21:29;1.73;;;1.50;;
17306;SDS011;8771;48.048;7.682;2024-03-06T10:26:35;1.73;;;1.63;;
17306;SDS011;8771;48.048;7.682;2024-03-06T10:31:40;3.33;;;2.07;;
17306;SDS011;8771;48.048;7.682;2024-03-06T10:36:44;2.50;;;1.87;;
17306;SDS011;8771;48.048;7.682;2024-03-06T10:41:49;1.60;;;1.50;;
17306;SDS011;8771;48.048;7.682;2024-03-06T10:46:58;3.00;;;1.80;;
17306;SDS011;8771;48.048;7.682;2024-03-06T10:52:02;2.10;;;1.90;;
17306;SDS011;8771;48.048;7.682;2024-03-06T10:57:07;2.00;;;1.90;;
17306;SDS011;8771;48.048;7.682;2024-03-06T11:02:15;4.37;;;1.90;;
17306;SDS011;8771;48.048;7.682;2024-03-06T11:07:19;2.23;;;1.90;;
17306;SDS011;8771;48.048;7.682;2024-03-06T11:12:32;1.63;;;1.53;;
17306;SDS011;8771;48.048;7.682;2024-03-06T11:17:40;3.93;;;1.93;;
17306;SDS011;8771;48.048;7.682;2024-03-06T11:28:15;1.73;;;1.10;;
17306;SDS011;8771;48.048;7.682;2024-03-06T11:33:20;3.97;;;1.70;;
17306;SDS011;8771;48.048;7.682;2024-03-06T11:38:22;1.53;;;1.40;;
17306;SDS011;8771;48.048;7.682;2024-03-06T11:43:27;1.93;;;1.73;;
17306;SDS011;8771;48.048;7.682;2024-03-06T11:48:31;1.47;;;1.37;;
17306;SDS011;8771;48.048;7.682;2024-03-06T11:53:34;1.70;;;1.40;;
17306;SDS011;8771;48.048;7.682;2024-03-06T11:58:36;1.40;;;1.30;;
17306;SDS011;8771;48.048;7.682;2024-03-06T12:03:40;1.80;;;1.40;;
17306;SDS011;8771;48.048;7.682;2024-03-06T12:08:43;1.47;;;1.37;;
17306;SDS011;8771;48.048;7.682;2024-03-06T12:13:45;3.60;;;1.07;;
17306;SDS011;8771;48.048;7.682;2024-03-06T12:18:55;3.00;;;1.50;;
17306;SDS011;8771;48.048;7.682;2024-03-06T12:24:04;1.40;;;1.30;;
17306;SDS011;8771;48.048;7.682;2024-03-06T12:29:09;2.97;;;1.40;;
17306;SDS011;8771;48.048;7.682;2024-03-06T12:34:14;3.00;;;1.60;;
17306;SDS011;8771;48.048;7.682;2024-03-06T12:39:17;1.83;;;1.30;;
17306;SDS011;8771;48.048;7.682;2024-03-06T12:44:38;3.70;;;1.43;;
17306;SDS011;8771;48.048;7.682;2024-03-06T12:49:42;1.23;;;1.13;;
17306;SDS011;8771;48.048;7.682;2024-03-06T12:54:59;1.97;;;1.20;;
17306;SDS011;8771;48.048;7.682;2024-03-06T13:00:16;2.77;;;1.30;;
17306;SDS011;8771;48.048;7.682;2024-03-06T13:05:22;1.47;;;1.30;;
17306;SDS011;8771;48.048;7.682;2024-03-06T13:10:25;1.43;;;1.20;;
17306;SDS011;8771;48.048;7.682;2024-03-06T13:15:28;1.70;;;1.10;;
17306;SDS011;8771;48.048;7.682;2024-03-06T13:20:32;1.07;;;1.00;;
17306;SDS011;8771;48.048;7.682;2024-03-06T13:25:52;1.20;;;1.10;;
17306;SDS011;8771;48.048;7.682;2024-03-06T13:30:55;2.63;;;1.00;;
17306;SDS011;8771;48.048;7.682;2024-03-06T13:35:59;2.93;;;1.40;;
17306;SDS011;8771;48.048;7.682;2024-03-06T13:41:01;1.47;;;1.10;;
17306;SDS011;8771;48.048;7.682;2024-03-06T13:46:04;2.73;;;1.47;;
17306;SDS011;8771;48.048;7.682;2024-03-06T13:51:09;3.30;;;1.40;;
17306;SDS011;8771;48.048;7.682;2024-03-06T13:56:12;3.73;;;1.40;;
17306;SDS011;8771;48.048;7.682;2024-03-06T14:01:15;1.53;;;1.43;;
17306;SDS011;8771;48.048;7.682;2024-03-06T14:06:19;2.10;;;1.60;;
17306;SDS011;8771;48.048;7.682;2024-03-06T14:11:36;2.00;;;1.40;;
17306;SDS011;8771;48.048;7.682;2024-03-06T14:16:39;1.67;;;1.47;;
17306;SDS011;8771;48.048;7.682;2024-03-06T14:21:42;5.33;;;1.40;;
17306;SDS011;8771;48.048;7.682;2024-03-06T14:26:46;3.93;;;1.40;;
17306;SDS011;8771;48.048;7.682;2024-03-06T14:31:50;6.30;;;1.80;;
17306;SDS011;8771;48.048;7.682;2024-03-06T14:36:54;3.40;;;1.70;;
17306;SDS011;8771;48.048;7.682;2024-03-06T14:41:57;2.17;;;1.27;;
17306;SDS011;8771;48.048;7.682;2024-03-06T14:47:00;2.77;;;1.70;;
17306;SDS011;8771;48.048;7.682;2024-03-06T14:52:04;1.87;;;1.33;;
17306;SDS011;8771;48.048;7.682;2024-03-06T14:57:07;4.37;;;2.20;;
17306;SDS011;8771;48.048;7.682;2024-03-06T15:02:10;4.03;;;3.63;;
17306;SDS011;8771;48.048;7.682;2024-03-06T15:07:17;3.20;;;2.30;;
17306;SDS011;8771;48.048;7.682;2024-03-06T15:12:20;6.67;;;5.93;;
17306;SDS011;8771;48.048;7.682;2024-03-06T15:17:23;5.23;;;3.73;;
17306;SDS011;8771;48.048;7.682;2024-03-06T15:22:28;7.43;;;4.03;;
17306;SDS011;8771;48.048;7.682;2024-03-06T15:27:30;10.80;;;8.37;;
17306;SDS011;8771;48.048;7.682;2024-03-06T15:32:33;5.83;;;4.63;;
17306;SDS011;8771;48.048;7.682;2024-03-06T15:37:37;7.10;;;5.63;;
17306;SDS011;8771;48.048;7.682;2024-03-06T15:42:40;5.97;;;3.60;;
17306;SDS011;8771;48.048;7.682;2024-03-06T15:47:44;3.70;;;3.20;;
17306;SDS011;8771;48.048;7.682;2024-03-06T15:53:02;3.93;;;1.97;;
17306;SDS011;8771;48.048;7.682;2024-03-06T15:58:05;2.13;;;1.70;;
17306;SDS011;8771;48.048;7.682;2024-03-06T16:03:08;1.83;;;1.60;;
17306;SDS011;8771;48.048;7.682;2024-03-06T16:08:12;2.80;;;1.97;;
17306;SDS011;8771;48.048;7.682;2024-03-06T16:13:15;2.53;;;2.20;;
17306;SDS011;8771;48.048;7.682;2024-03-06T16:18:18;3.73;;;3.37;;
17306;SDS011;8771;48.048;7.682;2024-03-06T16:23:36;1.97;;;1.87;;
17306;SDS011;8771;48.048;7.682;2024-03-06T16:28:38;3.53;;;2.87;;
17306;SDS011;8771;48.048;7.682;2024-03-06T16:33:42;4.23;;;2.77;;
17306;SDS011;8771;48.048;7.682;2024-03-06T16:38:47;2.10;;;1.90;;
17306;SDS011;8771;48.048;7.682;2024-03-06T16:43:49;2.50;;;1.97;;
17306;SDS011;8771;48.048;7.682;2024-03-06T16:48:51;1.80;;;1.70;;
17306;SDS011;8771;48.048;7.682;2024-03-06T16:53:54;2.33;;;2.13;;
17306;SDS011;8771;48.048;7.682;2024-03-06T16:58:56;2.10;;;1.87;;
17306;SDS011;8771;48.048;7.682;2024-03-06T17:04:00;2.40;;;2.20;;
17306;SDS011;8771;48.048;7.682;2024-03-06T17:09:04;6.93;;;6.33;;
17306;SDS011;8771;48.048;7.682;2024-03-06T17:14:06;4.33;;;3.43;;
17306;SDS011;8771;48.048;7.682;2024-03-06T17:19:08;3.50;;;2.50;;
17306;SDS011;8771;48.048;7.682;2024-03-06T17:24:13;2.13;;;1.93;;
17306;SDS011;8771;48.048;7.682;2024-03-06T17:29:15;2.93;;;2.10;;
17306;SDS011;8771;48.048;7.682;2024-03-06T17:34:17;2.17;;;2.07;;
17306;SDS011;8771;48.048;7.682;2024-03-06T17:39:20;4.60;;;3.57;;
17306;SDS011;8771;48.048;7.682;2024-03-06T17:44:25;4.33;;;3.00;;
17306;SDS011;8771;48.048;7.682;2024-03-06T17:49:28;2.87;;;2.67;;
17306;SDS011;8771;48.048;7.682;2024-03-06T17:54:32;3.03;;;2.83;;
17306;SDS011;8771;48.048;7.682;2024-03-06T17:59:50;3.20;;;2.90;;
17306;SDS011;8771;48.048;7.682;2024-03-06T18:04:55;3.70;;;2.87;;
17306;SDS011;8771;48.048;7.682;2024-03-06T18:10:00;3.47;;;3.03;;
17306;SDS011;8771;48.048;7.682;2024-03-06T18:15:03;3.20;;;2.90;;
17306;SDS011;8771;48.048;7.682;2024-03-06T18:20:07;3.93;;;3.27;;
17306;SDS011;8771;48.048;7.682;2024-03-06T18:25:11;3.50;;;3.20;;
17306;SDS011;8771;48.048;7.682;2024-03-06T18:30:15;4.07;;;3.27;;
17306;SDS011;8771;48.048;7.682;2024-03-06T18:35:18;3.83;;;3.30;;
17306;SDS011;8771;48.048;7.682;2024-03-06T18:40:23;5.67;;;3.43;;
17306;SDS011;8771;48.048;7.682;2024-03-06T18:45:27;8.00;;;5.30;;
17306;SDS011;8771;48.048;7.682;2024-03-06T18:50:29;4.77;;;4.03;;
17306;SDS011;8771;48.048;7.682;2024-03-06T18:55:33;5.13;;;3.43;;
17306;SDS011;8771;48.048;7.682;2024-03-06T19:00:37;5.13;;;3.90;;
17306;SDS011;8771;48.048;7.682;2024-03-06T19:05:40;4.93;;;4.43;;
17306;SDS011;8771;48.048;7.682;2024-03-06T19:10:44;7.53;;;6.73;;
17306;SDS011;8771;48.048;7.682;2024-03-06T19:15:47;7.30;;;5.80;;
17306;SDS011;8771;48.048;7.682;2024-03-06T19:20:49;5.87;;;4.80;;
17306;SDS011;8771;48.048;7.682;2024-03-06T19:25:53;5.70;;;5.20;;
17306;SDS011;8771;48.048;7.682;2024-03-06T19:31:11;5.80;;;5.30;;
17306;SDS011;8771;48.048;7.682;2024-03-06T19:36:13;5.93;;;5.10;;
17306;SDS011;8771;48.048;7.682;2024-03-06T19:41:17;4.23;;;3.83;;
17306;SDS011;8771;48.048;7.682;2024-03-06T19:46:20;5.10;;;4.60;;
17306;SDS011;8771;48.048;7.682;2024-03-06T19:51:24;4.60;;;4.20;;
17306;SDS011;8771;48.048;7.682;2024-03-06T19:56:29;5.20;;;4.70;;
17306;SDS011;8771;48.048;7.682;2024-03-06T20:01:32;5.83;;;5.13;;
17306;SDS011;8771;48.048;7.682;2024-03-06T20:06:36;5.20;;;4.67;;
17306;SDS011;8771;48.048;7.682;2024-03-06T20:11:43;5.60;;;4.00;;
17306;SDS011;8771;48.048;7.682;2024-03-06T20:16:46;5.50;;;4.70;;
17306;SDS011;8771;48.048;7.682;2024-03-06T20:21:49;5.10;;;4.60;;
17306;SDS011;8771;48.048;7.682;2024-03-06T20:26:55;5.40;;;4.90;;
17306;SDS011;8771;48.048;7.682;2024-03-06T20:32:00;9.17;;;5.70;;
17306;SDS011;8771;48.048;7.682;2024-03-06T20:37:02;7.07;;;5.93;;
17306;SDS011;8771;48.048;7.682;2024-03-06T20:42:21;6.77;;;5.80;;
17306;SDS011;8771;48.048;7.682;2024-03-06T20:47:23;6.87;;;5.67;;
17306;SDS011;8771;48.048;7.682;2024-03-06T20:52:25;6.30;;;5.70;;
17306;SDS011;8771;48.048;7.682;2024-03-06T20:57:28;6.17;;;5.67;;
17306;SDS011;8771;48.048;7.682;2024-03-06T21:02:45;7.63;;;6.93;;
17306;SDS011;8771;48.048;7.682;2024-03-06T21:07:47;7.97;;;7.23;;
17306;SDS011;8771;48.048;7.682;2024-03-06T21:12:51;8.37;;;7.20;;
17306;SDS011;8771;48.048;7.682;2024-03-06T21:17:54;8.43;;;7.63;;
17306;SDS011;8771;48.048;7.682;2024-03-06T21:23:12;8.83;;;7.80;;
17306;SDS011;8771;48.048;7.682;2024-03-06T21:28:31;8.73;;;7.43;;
17306;SDS011;8771;48.048;7.682;2024-03-06T21:33:33;8.23;;;6.83;;
17306;SDS011;8771;48.048;7.682;2024-03-06T21:38:50;7.33;;;6.63;;
17306;SDS011;8771;48.048;7.682;2024-03-06T21:43:54;7.97;;;7.17;;
17306;SDS011;8771;48.048;7.682;2024-03-06T21:49:12;7.40;;;6.60;;
17306;SDS011;8771;48.048;7.682;2024-03-06T21:54:29;7.93;;;7.13;;
17306;SDS011;8771;48.048;7.682;2024-03-06T21:59:32;8.20;;;6.73;;
17306;SDS011;8771;48.048;7.682;2024-03-06T22:04:34;7.07;;;6.37;;
17306;SDS011;8771;48.048;7.682;2024-03-06T22:09:40;8.67;;;6.70;;
17306;SDS011;8771;48.048;7.682;2024-03-06T22:14:44;8.20;;;7.17;;
17306;SDS011;8771;48.048;7.682;2024-03-06T22:19:47;7.77;;;6.90;;
17306;SDS011;8771;48.048;7.682;2024-03-06T22:24:50;7.97;;;7.17;;
17306;SDS011;8771;48.048;7.682;2024-03-06T22:29:55;7.70;;;6.90;;
17306;SDS011;8771;48.048;7.682;2024-03-06T22:34:58;8.43;;;7.63;;
17306;SDS011;8771;48.048;7.682;2024-03-06T22:40:01;9.27;;;8.37;;
17306;SDS011;8771;48.048;7.682;2024-03-06T22:45:06;9.67;;;8.77;;
17306;SDS011;8771;48.048;7.682;2024-03-06T22:50:09;10.80;;;8.63;;
17306;SDS011;8771;48.048;7.682;2024-03-06T22:55:12;10.07;;;9.13;;
17306;SDS011;8771;48.048;7.682;2024-03-06T23:00:16;10.90;;;8.93;;
17306;SDS011;8771;48.048;7.682;2024-03-06T23:05:31;10.40;;;9.10;;
17306;SDS011;8771;48.048;7.682;2024-03-06T23:10:34;11.03;;;9.90;;
17306;SDS011;8771;48.048;7.682;2024-03-06T23:15:39;10.93;;;9.57;;
17306;SDS011;8771;48.048;7.682;2024-03-06T23:20:41;11.30;;;10.10;;
17306;SDS011;8771;48.048;7.682;2024-03-06T23:25:44;11.23;;;10.13;;
17306;SDS011;8771;48.048;7.682;2024-03-06T23:30:48;12.00;;;10.13;;
17306;SDS011;8771;48.048;7.682;2024-03-06T23:35:51;11.03;;;10.03;;
17306;SDS011;8771;48.048;7.682;2024-03-06T23:40:54;10.77;;;9.63;;
17306;SDS011;8771;48.048;7.682;2024-03-06T23:45:58;11.40;;;10.20;;
17306;SDS011;8771;48.048;7.682;2024-03-06T23:51:02;11.50;;;10.30;;
17306;SDS011;8771;48.048;7.682;2024-03-06T23:56:05;11.00;;;10.00;;
